Time;durP1;ratioP1;P1;durP2;ratioP2;P2;SDS_P1;SDS_P2;PMS_P1;PMS_P2;Temp;Humidity;BMP_temperature;BMP_pressure;BME280_temperature;BME280_humidity;BME280_pressure;Samples;Min_cycle;Max_cycle;Signal;HPM_P1;HPM_P2
2022/01/22 00:01:06;;;;;;;13.95;2.22;;;4.90;84.20;;;;;;4077274;29;20059;-84
2022/01/22 00:03:07;;;;;;;8.98;1.83;;;4.80;84.10;;;;;;4089672;28;20428;-84
2022/01/22 00:05:08;;;;;;;9.38;1.98;;;4.90;84.00;;;;;;4073533;29;20494;-85
2022/01/22 00:07:10;;;;;;;6.30;1.98;;;4.90;84.00;;;;;;4067581;29;20036;-85
2022/01/22 00:09:11;;;;;;;9.30;1.38;;;4.80;83.90;;;;;;4091699;28;20043;-84
2022/01/22 00:11:12;;;;;;;14.00;1.95;;;4.80;83.80;;;;;;4093073;28;20365;-84
2022/01/22 00:15:20;;;;;;;9.25;1.63;;;4.80;83.70;;;;;;4078061;28;20093;-85
2022/01/22 00:17:21;;;;;;;7.63;1.10;;;4.80;83.70;;;;;;4077665;29;20162;-86
2022/01/22 00:19:22;;;;;;;10.80;1.60;;;4.90;83.70;;;;;;4076325;29;20735;-86
2022/01/22 00:21:22;;;;;;;14.05;1.70;;;4.80;83.60;;;;;;4077511;29;20034;-85
2022/01/22 00:23:26;;;;;;;9.20;1.35;;;4.80;83.50;;;;;;4104759;28;20018;-86
2022/01/22 00:25:27;;;;;;;12.32;1.65;;;4.80;83.50;;;;;;4075482;28;20091;-85
2022/01/22 00:27:28;;;;;;;12.05;1.88;;;4.80;83.50;;;;;;4094162;28;20974;-86
2022/01/22 00:29:29;;;;;;;9.57;1.63;;;4.80;83.50;;;;;;4090081;28;20031;-85
2022/01/22 00:31:29;;;;;;;11.32;1.45;;;4.80;83.60;;;;;;4092445;28;21810;-85
2022/01/22 00:33:30;;;;;;;9.23;1.50;;;4.70;83.50;;;;;;4103768;28;20027;-85
2022/01/22 00:35:31;;;;;;;15.50;2.25;;;4.70;83.50;;;;;;4105703;28;21172;-85
2022/01/22 00:37:31;;;;;;;12.65;1.65;;;4.70;83.50;;;;;;4088736;28;20604;-85
2022/01/22 00:39:34;;;;;;;17.85;2.10;;;4.70;83.50;;;;;;4106757;28;20526;-85
2022/01/22 00:41:34;;;;;;;12.55;2.13;;;4.70;83.50;;;;;;4122055;28;20026;-85
2022/01/22 00:43:35;;;;;;;8.57;1.70;;;4.80;83.70;;;;;;4105773;28;20086;-84
2022/01/22 00:45:36;;;;;;;16.88;2.13;;;4.80;83.70;;;;;;4124167;28;20439;-85
2022/01/22 00:47:37;;;;;;;16.08;2.30;;;4.70;83.60;;;;;;4105447;28;20031;-85
2022/01/22 00:49:37;;;;;;;20.27;2.28;;;4.70;83.60;;;;;;4122404;28;20041;-85
2022/01/22 00:51:38;;;;;;;14.30;2.38;;;4.70;83.70;;;;;;4093537;28;20438;-85
2022/01/22 00:53:39;;;;;;;14.13;2.00;;;4.60;83.70;;;;;;4121098;28;20022;-87
2022/01/22 00:55:39;;;;;;;12.43;1.70;;;4.60;83.70;;;;;;4091020;28;22443;-86
2022/01/22 00:57:40;;;;;;;7.32;1.80;;;4.60;83.90;;;;;;4106867;28;20038;-86
2022/01/22 00:59:41;;;;;;;19.13;2.28;;;4.50;83.90;;;;;;4075299;29;20032;-85
2022/01/22 01:01:42;;;;;;;15.23;1.73;;;4.50;84.10;;;;;;4100959;28;20034;-86
2022/01/22 01:03:42;;;;;;;8.98;1.67;;;4.50;84.10;;;;;;4107192;28;20485;-86
2022/01/22 01:05:43;;;;;;;9.77;1.85;;;4.50;84.20;;;;;;4087910;28;20472;-87
2022/01/22 01:07:44;;;;;;;8.75;1.55;;;4.50;84.10;;;;;;4104685;28;20086;-85
2022/01/22 01:09:45;;;;;;;15.50;2.15;;;4.50;84.10;;;;;;4090519;28;20035;-85
2022/01/22 01:11:51;;;;;;;17.70;2.15;;;4.40;84.00;;;;;;4091578;28;20032;-85
2022/01/22 01:13:56;;;;;;;12.68;1.75;;;4.50;84.00;;;;;;4106904;28;20031;-86
2022/01/22 01:16:03;;;;;;;13.88;2.08;;;4.40;83.90;;;;;;4106421;28;20042;-86
2022/01/22 01:32:13;;;;;;;9.20;1.75;;;4.40;85.10;;;;;;4121075;28;20133;-86
2022/01/22 01:34:16;;;;;;;16.92;2.33;;;4.40;85.30;;;;;;4108632;28;20037;-86
2022/01/22 01:36:17;;;;;;;9.73;1.63;;;4.40;85.40;;;;;;4077753;29;20043;-85
2022/01/22 01:38:21;;;;;;;6.82;1.67;;;4.30;85.40;;;;;;4104193;28;20555;-85
2022/01/22 01:40:40;;;;;;;21.55;2.42;;;4.40;85.50;;;;;;4091915;28;20039;-85
2022/01/22 01:44:41;;;;;;;9.73;1.40;;;4.40;85.60;;;;;;4106825;28;20026;-86
2022/01/22 01:46:57;;;;;;;14.40;1.98;;;4.40;85.50;;;;;;4086618;28;20028;-85
2022/01/22 01:48:58;;;;;;;13.05;2.00;;;4.40;85.50;;;;;;4104401;28;20030;-86
2022/01/22 01:51:00;;;;;;;19.05;2.70;;;4.50;85.60;;;;;;4105889;28;20546;-86
2022/01/22 01:55:18;;;;;;;17.40;2.28;;;4.50;85.80;;;;;;4091709;28;20045;-85
2022/01/22 01:57:31;;;;;;;11.63;2.45;;;4.50;85.80;;;;;;4104946;28;20038;-86
2022/01/22 01:59:32;;;;;;;;;;;4.50;85.90;;;;;;4103942;28;20074;-85
2022/01/22 02:01:33;;;;;;;15.18;2.60;;;4.50;87.00;;;;;;4080367;28;19910;-87
2022/01/22 02:03:39;;;;;;;18.63;3.08;;;4.50;86.10;;;;;;4089418;28;20035;-87
2022/01/22 02:05:40;;;;;;;17.02;2.67;;;4.60;86.10;;;;;;4072351;29;20693;-87
2022/01/22 02:07:42;;;;;;;12.13;2.30;;;4.60;86.20;;;;;;4077616;29;20032;-87
2022/01/22 02:09:44;;;;;;;17.90;2.88;;;4.50;86.20;;;;;;4089044;28;20023;-88
2022/01/22 02:11:45;;;;;;;31.15;4.45;;;4.60;86.40;;;;;;4073826;29;20050;-87
2022/01/22 02:14:01;;;;;;;16.75;2.75;;;4.60;86.50;;;;;;4104787;28;20035;-87
2022/01/22 02:23:42;;;;;;;12.10;2.50;;;4.70;86.70;;;;;;4107894;28;20040;-85
2022/01/22 02:25:42;;;;;;;16.13;2.25;;;4.70;86.80;;;;;;4090270;28;20034;-87
2022/01/22 02:27:43;;;;;;;7.50;2.22;;;4.70;86.80;;;;;;4073604;29;20062;-86
2022/01/22 02:29:44;;;;;;;14.35;2.45;;;4.70;86.80;;;;;;4091416;28;20039;-87
2022/01/22 02:32:02;;;;;;;13.15;2.80;;;4.80;86.90;;;;;;4096296;28;20528;-86
2022/01/22 02:34:23;;;;;;;21.48;2.70;;;4.80;86.90;;;;;;4095215;28;20106;-87
2022/01/22 02:36:56;;;;;;;12.95;2.05;;;4.80;86.90;;;;;;4089684;28;20167;-87
2022/01/22 02:39:06;;;;;;;12.07;2.15;;;4.80;86.90;;;;;;4086939;28;20023;-85
2022/01/22 02:41:13;;;;;;;10.43;2.67;;;4.80;86.80;;;;;;4091489;28;20300;-86
2022/01/22 02:43:40;;;;;;;16.92;2.75;;;4.80;86.70;;;;;;4103598;28;20030;-87
2022/01/22 02:45:41;;;;;;;16.50;3.53;;;4.80;86.70;;;;;;4073053;28;20027;-84
2022/01/22 02:47:42;;;;;;;15.40;2.85;;;4.80;86.70;;;;;;4089804;28;20027;-84
2022/01/22 02:49:43;;;;;;;12.07;3.15;;;4.90;86.70;;;;;;4102896;28;20491;-85
2022/01/22 02:51:43;;;;;;;14.57;2.85;;;4.80;86.70;;;;;;4075907;29;20572;-85
2022/01/22 02:53:44;;;;;;;12.15;2.75;;;4.80;86.60;;;;;;4121262;28;20534;-85
2022/01/22 02:55:45;;;;;;;9.98;2.47;;;4.90;86.60;;;;;;4101953;28;20136;-85
2022/01/22 02:57:46;;;;;;;12.30;2.38;;;4.80;86.50;;;;;;4089836;28;20474;-85
2022/01/22 02:59:47;;;;;;;14.32;3.25;;;4.90;86.60;;;;;;4104115;28;20043;-84
2022/01/22 03:01:48;;;;;;;16.17;3.03;;;4.80;86.50;;;;;;4118758;28;20026;-85
2022/01/22 03:03:49;;;;;;;17.27;2.95;;;4.90;86.50;;;;;;4091065;28;20086;-85
2022/01/22 03:05:50;;;;;;;13.13;3.88;;;4.80;86.50;;;;;;4087567;28;20031;-85
2022/01/22 03:07:54;;;;;;;13.10;3.10;;;4.90;86.50;;;;;;4100443;28;20035;-85
2022/01/22 03:10:14;;;;;;;9.73;2.75;;;4.90;86.40;;;;;;4086621;28;20035;-85
2022/01/22 03:15:29;;;;;;;14.13;2.83;;;4.90;86.30;;;;;;4106213;28;20031;-85
2022/01/22 03:18:09;;;;;;;20.90;3.58;;;4.90;86.30;;;;;;4100623;28;20043;-85
2022/01/22 03:19:58;;;;;;;13.35;2.92;;;4.90;86.20;;;;;;4068553;28;20424;-84
2022/01/22 03:22:11;;;;;;;14.48;3.20;;;4.90;86.20;;;;;;4094339;28;20118;-85
2022/01/22 03:29:13;;;;;;;11.65;2.13;;;5.00;86.00;;;;;;4105438;28;20035;-86
2022/01/22 03:31:13;;;;;;;13.05;2.92;;;5.00;86.00;;;;;;4091208;28;20028;-86
2022/01/22 03:33:18;;;;;;;8.30;2.78;;;5.00;85.90;;;;;;4075392;29;20127;-86
2022/01/22 03:37:20;;;;;;;13.50;2.72;;;5.00;85.70;;;;;;4091262;28;20082;-86
2022/01/22 03:39:20;;;;;;;10.95;2.58;;;5.10;85.60;;;;;;4104561;28;20027;-85
2022/01/22 03:41:23;;;;;;;14.02;2.65;;;5.00;85.60;;;;;;4118201;28;20062;-86
2022/01/22 03:43:24;;;;;;;7.72;2.13;;;5.10;85.50;;;;;;4088537;28;20518;-85
2022/01/22 03:45:25;;;;;;;8.52;2.28;;;5.00;85.50;;;;;;4088774;28;20031;-86
2022/01/22 03:47:25;;;;;;;14.13;2.40;;;5.00;85.40;;;;;;4104164;28;20031;-85
2022/01/22 03:49:26;;;;;;;13.77;2.90;;;5.10;85.40;;;;;;4104143;28;20091;-87
2022/01/22 03:51:27;;;;;;;13.65;3.00;;;5.10;85.50;;;;;;4087900;28;20084;-88
2022/01/22 03:53:58;;;;;;;13.98;3.08;;;5.10;85.50;;;;;;4103242;28;20122;-88
2022/01/22 03:56:06;;;;;;;5.15;1.77;;;5.00;85.30;;;;;;4107950;28;20050;-85
2022/01/22 03:58:07;;;;;;;9.77;2.40;;;5.00;85.30;;;;;;4121029;28;20023;-85
2022/01/22 04:00:08;;;;;;;9.40;2.70;;;5.00;85.30;;;;;;4107965;28;20053;-84
2022/01/22 04:04:17;;;;;;;;;;;5.10;85.40;;;;;;4101934;28;20400;-84
2022/01/22 04:08:19;;;;;;;12.68;3.03;;;5.10;85.50;;;;;;4089383;28;20496;-86
2022/01/22 04:10:21;;;;;;;8.05;2.55;;;5.10;85.50;;;;;;4117664;28;20033;-87
2022/01/22 04:12:31;;;;;;;13.55;3.33;;;5.10;85.50;;;;;;4103240;28;20185;-85
2022/01/22 04:14:34;;;;;;;17.00;2.92;;;5.10;85.60;;;;;;4102673;28;20055;-86
2022/01/22 04:16:42;;;;;;;9.30;2.50;;;5.10;85.70;;;;;;4084952;28;20437;-87
2022/01/22 04:25:46;;;;;;;17.83;3.17;;;5.10;85.80;;;;;;4098006;28;20058;-89
2022/01/22 04:27:48;;;;;;;12.90;2.25;;;5.10;85.80;;;;;;4105599;28;20031;-87
2022/01/22 04:29:51;;;;;;;12.25;2.40;;;5.10;85.80;;;;;;4102297;28;20118;-87
2022/01/22 04:31:52;;;;;;;;;;;5.20;85.80;;;;;;4088742;28;20031;-87
2022/01/22 04:33:52;;;;;;;7.50;2.30;;;5.20;86.00;;;;;;4117448;28;19990;-87
2022/01/22 04:35:53;;;;;;;10.30;2.63;;;5.10;85.70;;;;;;4103292;28;20472;-86
2022/01/22 04:37:54;;;;;;;10.13;2.00;;;5.20;85.70;;;;;;4090606;28;20027;-84
2022/01/22 04:39:54;;;;;;;7.63;2.55;;;5.20;85.70;;;;;;4117458;28;20034;-86
2022/01/22 04:41:56;;;;;;;7.55;1.95;;;5.20;85.70;;;;;;4108637;28;20152;-85
2022/01/22 04:44:01;;;;;;;14.88;2.50;;;5.20;85.60;;;;;;4088518;28;20547;-85
2022/01/22 04:46:20;;;;;;;10.02;2.28;;;5.20;86.30;;;;;;4086733;28;20063;-85
2022/01/22 04:48:29;;;;;;;12.15;2.35;;;5.20;85.60;;;;;;4106572;28;20034;-86
2022/01/22 04:55:13;;;;;;;10.48;2.50;;;5.20;85.60;;;;;;4107560;28;20496;-85
2022/01/22 04:57:15;;;;;;;14.52;2.50;;;5.20;86.40;;;;;;4104647;28;20116;-84
2022/01/22 04:59:27;;;;;;;13.13;2.30;;;5.30;85.80;;;;;;4090207;28;20083;-86
2022/01/22 05:01:30;;;;;;;14.90;2.80;;;5.20;85.70;;;;;;4106051;28;20454;-86
2022/01/22 05:03:36;;;;;;;10.02;2.55;;;5.20;85.80;;;;;;4105961;28;20030;-86
2022/01/22 05:06:15;;;;;;;;;;;5.20;86.50;;;;;;4104307;28;20133;-84
2022/01/22 05:08:16;;;;;;;14.13;2.28;;;5.20;86.00;;;;;;4092275;28;19914;-85
2022/01/22 05:10:17;;;;;;;7.25;2.75;;;5.30;85.90;;;;;;4071968;29;20031;-86
2022/01/22 05:12:17;;;;;;;8.05;2.53;;;5.30;85.90;;;;;;4091014;28;20401;-86
2022/01/22 05:14:23;;;;;;;10.38;2.88;;;5.30;85.90;;;;;;4106344;28;20085;-86
2022/01/22 05:19:58;;;;;;;15.18;2.75;;;5.20;85.80;;;;;;4094161;28;20079;-84
2022/01/22 05:21:57;;;;;;;8.27;2.75;;;5.30;85.80;;;;;;4097501;28;20042;-85
2022/01/22 05:24:09;;;;;;;13.82;2.60;;;5.30;85.80;;;;;;4090127;28;20583;-84
2022/01/22 05:31:35;;;;;;;6.28;2.47;;;5.20;85.90;;;;;;4090954;28;20102;-86
2022/01/22 05:38:50;;;;;;;10.95;3.00;;;5.20;85.80;;;;;;4118496;28;20050;-86
2022/01/22 05:41:08;;;;;;;;;;;;;;;;;;;;;
2022/01/22 05:43:23;;;;;;;;;;;5.20;85.90;;;;;;4096542;28;20429;-86
2022/01/22 05:45:38;;;;;;;12.48;2.70;;;5.20;86.20;;;;;;4074646;29;19910;-86
2022/01/22 05:47:44;;;;;;;7.28;2.70;;;5.10;85.90;;;;;;4073561;29;20511;-87
2022/01/22 05:49:44;;;;;;;7.75;2.42;;;5.10;85.90;;;;;;4088340;28;20023;-84
2022/01/22 05:51:56;;;;;;;9.60;2.90;;;5.10;86.70;;;;;;4086149;28;20060;-83
2022/01/22 05:54:32;;;;;;;12.05;3.25;;;5.10;86.00;;;;;;4102527;28;20037;-87
2022/01/22 05:59:46;;;;;;;14.40;3.35;;;5.10;86.00;;;;;;4104790;28;20077;-84
2022/01/22 06:07:31;;;;;;;12.90;2.50;;;5.10;86.20;;;;;;4234928;22;20058;-76
2022/01/22 06:09:33;;;;;;;9.65;2.22;;;5.10;86.20;;;;;;4118356;28;20518;-74
2022/01/22 06:11:41;;;;;;;8.57;2.40;;;5.10;86.20;;;;;;4116699;28;20502;-74
2022/01/22 06:13:46;;;;;;;10.95;2.45;;;5.10;86.20;;;;;;4134181;28;20033;-74
2022/01/22 06:15:46;;;;;;;9.50;2.10;;;5.10;86.20;;;;;;4131112;28;20067;-74
2022/01/22 06:17:47;;;;;;;8.32;2.55;;;5.10;86.30;;;;;;4106114;28;20597;-71
2022/01/22 06:19:48;;;;;;;13.23;2.30;;;5.10;86.30;;;;;;4133191;28;20026;-72
2022/01/22 06:21:51;;;;;;;15.25;2.35;;;5.10;86.30;;;;;;4132290;28;20050;-73
2022/01/22 06:23:51;;;;;;;11.07;3.08;;;5.10;86.30;;;;;;4114185;28;20027;-73
2022/01/22 06:25:52;;;;;;;9.27;2.50;;;5.10;86.40;;;;;;4131955;28;20033;-73
2022/01/22 06:27:52;;;;;;;8.35;2.92;;;5.10;86.40;;;;;;4120097;28;20037;-73
2022/01/22 06:29:53;;;;;;;9.52;2.13;;;5.10;86.40;;;;;;4122723;28;20049;-71
2022/01/22 06:31:54;;;;;;;18.00;2.88;;;5.10;86.40;;;;;;4139622;28;20025;-72
2022/01/22 06:33:54;;;;;;;16.73;2.75;;;5.10;86.40;;;;;;4120297;28;20034;-73
2022/01/22 06:35:55;;;;;;;15.43;2.78;;;5.10;86.50;;;;;;4135294;28;20036;-72
2022/01/22 06:37:59;;;;;;;19.40;2.95;;;5.10;86.60;;;;;;4123140;28;20021;-72
2022/01/22 06:42:06;;;;;;;9.18;2.50;;;5.10;86.50;;;;;;4117418;28;20524;-72
2022/01/22 06:44:06;;;;;;;15.15;2.65;;;5.20;86.60;;;;;;4136343;28;20042;-74
2022/01/22 06:46:07;;;;;;;8.57;2.28;;;5.20;86.60;;;;;;4102685;28;20096;-73
2022/01/22 06:48:08;;;;;;;9.48;2.90;;;5.20;86.60;;;;;;4119852;28;20026;-71
2022/01/22 06:50:08;;;;;;;12.88;3.00;;;5.20;86.60;;;;;;4117391;28;20048;-71
2022/01/22 06:52:09;;;;;;;6.70;1.70;;;5.20;86.50;;;;;;4116541;28;20106;-73
2022/01/22 06:54:10;;;;;;;7.45;1.80;;;5.20;86.50;;;;;;4134838;28;20111;-73
2022/01/22 06:56:18;;;;;;;11.82;2.10;;;5.20;86.50;;;;;;4114443;28;20038;-73
2022/01/22 06:58:19;;;;;;;4.70;1.70;;;5.20;86.50;;;;;;4111720;28;20536;-73
2022/01/22 07:00:19;;;;;;;7.30;1.70;;;5.20;86.40;;;;;;4135021;28;20096;-73
2022/01/22 07:02:20;;;;;;;11.25;2.00;;;5.20;86.50;;;;;;4133993;28;20441;-73
2022/01/22 07:04:21;;;;;;;8.48;1.70;;;5.20;86.50;;;;;;4132310;28;20109;-73
2022/01/22 07:06:22;;;;;;;10.63;1.77;;;5.20;86.50;;;;;;4119917;28;20069;-73
2022/01/22 07:08:23;;;;;;;10.70;1.83;;;5.20;86.60;;;;;;4120192;28;20042;-73
2022/01/22 07:10:23;;;;;;;16.52;3.28;;;5.20;86.60;;;;;;4137797;28;20041;-73
2022/01/22 07:12:24;;;;;;;8.82;2.10;;;5.20;86.70;;;;;;4137528;28;20061;-73
2022/01/22 07:14:26;;;;;;;7.38;1.90;;;5.20;86.70;;;;;;4128312;28;20087;-73
2022/01/22 07:16:26;;;;;;;9.18;1.83;;;5.20;86.80;;;;;;4131662;28;20041;-73
2022/01/22 07:18:29;;;;;;;15.63;2.08;;;5.20;86.90;;;;;;4130706;28;21102;-73
2022/01/22 07:20:31;;;;;;;7.95;2.20;;;5.20;86.80;;;;;;4124987;28;20053;-73
2022/01/22 07:24:51;;;;;;;23.38;2.55;;;5.20;86.90;;;;;;4107406;28;20031;-73
2022/01/22 07:26:55;;;;;;;14.15;1.83;;;5.20;86.90;;;;;;4127007;28;20135;-73
2022/01/22 07:28:56;;;;;;;11.27;1.67;;;5.20;87.00;;;;;;4109488;28;20030;-73
2022/01/22 07:30:59;;;;;;;15.57;2.58;;;5.20;86.90;;;;;;4110916;28;20101;-73
2022/01/22 07:33:00;;;;;;;9.88;1.80;;;5.30;87.10;;;;;;4131753;28;20509;-73
2022/01/22 07:35:01;;;;;;;14.23;2.20;;;5.30;87.10;;;;;;4110372;28;20073;-73
2022/01/22 07:37:02;;;;;;;16.98;1.63;;;5.30;87.10;;;;;;4123221;28;20420;-73
2022/01/22 07:39:03;;;;;;;12.40;2.25;;;5.30;87.10;;;;;;4127375;28;20068;-73
2022/01/22 07:41:06;;;;;;;18.42;2.72;;;5.30;87.10;;;;;;4110082;28;20508;-73
2022/01/22 07:43:07;;;;;;;15.95;1.90;;;5.30;87.10;;;;;;4093859;28;20074;-73
2022/01/22 07:45:08;;;;;;;22.45;2.40;;;5.20;87.20;;;;;;4123280;28;20041;-73
2022/01/22 07:47:09;;;;;;;12.35;1.70;;;5.30;87.30;;;;;;4120111;28;20168;-73
2022/01/22 07:49:10;;;;;;;15.80;2.22;;;5.30;87.20;;;;;;4124016;28;20049;-73
2022/01/22 07:51:10;;;;;;;16.10;1.85;;;5.30;87.20;;;;;;4126602;28;20156;-73
2022/01/22 07:53:11;;;;;;;11.32;2.33;;;5.30;87.10;;;;;;4122944;28;20030;-73
2022/01/22 07:55:12;;;;;;;25.15;3.90;;;5.30;87.10;;;;;;4124658;28;20144;-73
2022/01/22 07:57:12;;;;;;;16.13;2.40;;;5.30;87.10;;;;;;4087346;28;20031;-73
2022/01/22 07:59:13;;;;;;;16.95;2.63;;;5.30;87.20;;;;;;4125004;28;21517;-73
2022/01/22 08:01:14;;;;;;;16.15;3.65;;;5.30;87.20;;;;;;4109229;28;20034;-73
2022/01/22 08:03:14;;;;;;;31.75;13.50;;;5.20;87.10;;;;;;4120373;28;20045;-73
2022/01/22 08:05:15;;;;;;;24.30;6.75;;;5.20;87.20;;;;;;4116597;28;20295;-72
2022/01/22 08:07:16;;;;;;;14.85;3.50;;;5.20;87.20;;;;;;4107066;28;20046;-73
2022/01/22 08:09:17;;;;;;;14.55;3.47;;;5.20;87.30;;;;;;4109584;28;20042;-73
2022/01/22 08:11:17;;;;;;;11.63;2.30;;;5.20;87.30;;;;;;4126527;28;20670;-73
2022/01/22 08:13:19;;;;;;;12.18;4.00;;;5.20;87.30;;;;;;4107213;28;20069;-73
2022/01/22 08:15:20;;;;;;;23.10;7.60;;;5.20;87.30;;;;;;4125869;28;20049;-73
2022/01/22 08:17:21;;;;;;;23.08;9.02;;;5.20;87.30;;;;;;4123602;28;20034;-73
2022/01/22 08:19:23;;;;;;;32.10;9.20;;;5.20;87.30;;;;;;4111178;28;20038;-73
2022/01/22 08:21:24;;;;;;;25.25;7.35;;;5.20;87.30;;;;;;4090604;28;20105;-73
2022/01/22 08:23:25;;;;;;;20.73;4.40;;;5.20;87.30;;;;;;4126497;28;20030;-73
2022/01/22 08:25:28;;;;;;;14.45;3.85;;;5.20;87.20;;;;;;4093772;28;20049;-73
2022/01/22 08:29:29;;;;;;;10.13;2.45;;;5.20;87.30;;;;;;4128393;28;20038;-73
2022/01/22 08:35:54;;;;;;;9.13;2.85;;;5.20;87.20;;;;;;4091498;28;20085;-73
2022/01/22 08:37:55;;;;;;;9.13;2.42;;;5.20;87.30;;;;;;4127413;28;20046;-74
2022/01/22 08:39:55;;;;;;;8.45;2.40;;;5.20;87.30;;;;;;4110362;28;20039;-73
2022/01/22 08:41:56;;;;;;;8.98;2.63;;;5.20;87.30;;;;;;4122260;28;20030;-73
2022/01/22 08:43:58;;;;;;;13.43;2.47;;;5.20;87.30;;;;;;4088870;28;20050;-73
2022/01/22 08:46:00;;;;;;;11.73;2.50;;;5.20;87.50;;;;;;4096123;28;20758;-73
2022/01/22 08:48:01;;;;;;;11.80;3.10;;;5.20;87.50;;;;;;4094565;28;20030;-73
2022/01/22 08:50:02;;;;;;;9.18;1.88;;;5.30;88.30;;;;;;4108760;28;20825;-73
2022/01/22 08:52:09;;;;;;;9.00;2.38;;;5.30;87.60;;;;;;4105557;28;20034;-74
2022/01/22 08:54:10;;;;;;;10.48;2.50;;;5.30;87.50;;;;;;4110680;28;20030;-74
2022/01/22 08:56:11;;;;;;;7.70;3.10;;;5.30;87.50;;;;;;4107388;28;20034;-74
2022/01/22 08:58:12;;;;;;;9.52;2.80;;;5.30;87.40;;;;;;4111615;28;20636;-74
2022/01/22 09:00:13;;;;;;;10.57;3.45;;;5.30;87.30;;;;;;4125101;28;20052;-73
2022/01/22 09:02:14;;;;;;;12.38;3.75;;;5.30;87.30;;;;;;4130336;28;20520;-74
2022/01/22 09:04:16;;;;;;;9.07;2.83;;;5.30;87.30;;;;;;4103538;28;20085;-73
2022/01/22 09:06:17;;;;;;;5.45;2.75;;;5.30;87.50;;;;;;4121290;28;20124;-73
2022/01/22 09:08:18;;;;;;;7.43;2.60;;;5.30;87.60;;;;;;4111364;28;20037;-74
2022/01/22 09:10:19;;;;;;;6.22;2.40;;;5.40;87.80;;;;;;4127112;28;20033;-74
2022/01/22 09:12:20;;;;;;;11.05;3.03;;;5.40;88.00;;;;;;4134659;22;20050;-69
2022/01/22 09:14:20;;;;;;;10.55;4.45;;;5.40;88.10;;;;;;4095111;28;20037;-69
2022/01/22 09:16:21;;;;;;;6.15;2.17;;;5.50;88.30;;;;;;4119126;28;20046;-69
2022/01/22 09:18:22;;;;;;;4.25;1.80;;;5.50;88.20;;;;;;4119178;28;20030;-69
2022/01/22 09:21:23;;;;;;;3.85;1.60;;;5.60;88.30;;;;;;4117198;28;20119;-69
2022/01/22 09:22:53;;;;;;;5.05;1.92;;;5.60;88.20;;;;;;4106022;28;20437;-69
2022/01/22 09:24:53;;;;;;;2.85;1.67;;;5.70;88.10;;;;;;4100698;28;20035;-69
2022/01/22 09:26:57;;;;;;;4.97;1.63;;;5.70;87.80;;;;;;4096550;28;20026;-70
2022/01/22 09:28:59;;;;;;;;;;;5.80;87.70;;;;;;4116275;28;20038;-69
2022/01/22 09:30:59;;;;;;;6.30;1.25;;;5.80;87.50;;;;;;4099545;28;20555;-69
2022/01/22 09:33:00;;;;;;;3.38;1.58;;;5.80;87.30;;;;;;4096554;28;20035;-71
2022/01/22 09:35:00;;;;;;;4.60;1.48;;;5.80;87.10;;;;;;4114385;28;20033;-70
2022/01/22 09:37:01;;;;;;;6.38;1.80;;;5.80;86.70;;;;;;4117501;28;20027;-69
2022/01/22 09:39:03;;;;;;;4.03;1.75;;;5.80;86.80;;;;;;4117610;28;20050;-70
2022/01/22 09:41:05;;;;;;;3.63;1.45;;;5.90;86.60;;;;;;4080400;28;20063;-69
2022/01/22 09:43:06;;;;;;;3.67;1.58;;;5.90;86.50;;;;;;4099381;28;20035;-69
2022/01/22 09:45:07;;;;;;;6.18;1.60;;;5.90;86.40;;;;;;4114184;28;20023;-69
2022/01/22 09:47:08;;;;;;;5.40;1.38;;;5.90;87.00;;;;;;4091871;28;20595;-69
2022/01/22 09:49:09;;;;;;;6.47;1.90;;;5.90;86.30;;;;;;4078218;28;20194;-69
2022/01/22 09:51:10;;;;;;;5.47;1.60;;;5.90;86.10;;;;;;4079078;28;20058;-67
2022/01/22 09:53:11;;;;;;;5.45;1.63;;;5.90;86.10;;;;;;4114707;28;20445;-70
2022/01/22 09:55:11;;;;;;;2.90;1.33;;;5.90;86.10;;;;;;4119516;28;20039;-70
2022/01/22 09:57:13;;;;;;;4.22;1.30;;;5.90;86.20;;;;;;4102768;28;20062;-70
2022/01/22 09:59:14;;;;;;;3.83;1.17;;;5.90;86.20;;;;;;4116187;28;21884;-70
2022/01/22 10:01:21;;;;;;;3.78;1.20;;;6.00;86.40;;;;;;4100158;28;20034;-70
2022/01/22 10:03:22;;;;;;;2.80;1.20;;;6.00;86.30;;;;;;4096986;28;20042;-69
2022/01/22 10:05:37;;;;;;;5.72;1.45;;;6.00;86.40;;;;;;4116866;28;20042;-70
2022/01/22 10:07:37;;;;;;;3.22;1.27;;;6.00;86.10;;;;;;4071292;29;20808;-70
2022/01/22 10:09:59;;;;;;;3.13;1.20;;;6.00;86.20;;;;;;4115464;28;20030;-70
2022/01/22 10:12:10;;;;;;;4.72;1.20;;;6.00;86.20;;;;;;4102809;28;20065;-70
2022/01/22 10:14:11;;;;;;;2.33;1.17;;;6.00;86.30;;;;;;4098244;28;20027;-70
2022/01/22 10:16:12;;;;;;;3.25;1.00;;;6.10;86.30;;;;;;4110578;28;20026;-70
2022/01/22 10:18:14;;;;;;;3.55;1.00;;;6.10;86.30;;;;;;4106343;28;20031;-70
2022/01/22 10:20:24;;;;;;;2.92;0.98;;;6.10;86.20;;;;;;4097110;28;20034;-70
2022/01/22 10:22:24;;;;;;;2.83;1.30;;;6.10;85.90;;;;;;4112778;28;20446;-70
2022/01/22 10:24:40;;;;;;;6.88;1.50;;;6.20;85.90;;;;;;4100044;28;20031;-70
2022/01/22 10:26:40;;;;;;;3.22;1.10;;;6.20;85.70;;;;;;4117188;28;20034;-70
2022/01/22 10:28:46;;;;;;;5.20;1.20;;;6.10;85.60;;;;;;4102175;28;20034;-70
2022/01/22 10:30:58;;;;;;;8.73;1.60;;;6.20;85.60;;;;;;4114643;28;20034;-70
2022/01/22 10:33:07;;;;;;;4.20;1.10;;;6.20;85.50;;;;;;4096943;28;20041;-70
2022/01/22 10:35:13;;;;;;;7.75;1.42;;;6.20;85.40;;;;;;4112452;28;20447;-70
2022/01/22 10:37:14;;;;;;;2.58;1.00;;;6.20;85.50;;;;;;4093797;28;20027;-70
2022/01/22 10:39:24;;;;;;;5.55;1.27;;;6.20;85.40;;;;;;4080604;28;20039;-70
2022/01/22 10:41:35;;;;;;;7.70;1.50;;;6.20;85.30;;;;;;4085420;28;20034;-70
2022/01/22 10:43:42;;;;;;;8.18;4.30;;;6.20;85.40;;;;;;4099230;28;20023;-70
2022/01/22 10:48:22;;;;;;;6.90;3.05;;;6.10;85.40;;;;;;4104052;28;20042;-70
2022/01/22 10:50:23;;;;;;;8.57;4.32;;;6.10;85.50;;;;;;4120245;28;20047;-70
2022/01/22 10:52:24;;;;;;;20.38;11.02;;;6.10;85.60;;;;;;4116522;28;20097;-70
2022/01/22 10:54:29;;;;;;;9.80;4.70;;;6.10;85.70;;;;;;4100880;28;20403;-70
2022/01/22 10:56:31;;;;;;;11.40;7.43;;;6.10;85.70;;;;;;4109333;28;20037;-70
2022/01/22 10:58:32;;;;;;;10.75;4.65;;;6.10;85.80;;;;;;4092473;28;20149;-69
2022/01/22 11:00:37;;;;;;;6.10;2.20;;;6.20;85.80;;;;;;4089731;28;20188;-70
2022/01/22 11:02:38;;;;;;;4.30;2.42;;;6.20;85.90;;;;;;4113265;28;20041;-69
2022/01/22 11:04:42;;;;;;;23.33;9.88;;;6.20;86.70;;;;;;4108880;28;20057;-69
2022/01/22 11:07:00;;;;;;;7.78;4.35;;;6.20;85.90;;;;;;4089988;28;20780;-70
2022/01/22 11:09:00;;;;;;;7.28;3.35;;;6.20;85.80;;;;;;4087801;28;20046;-70
2022/01/22 11:11:03;;;;;;;6.75;3.20;;;6.20;85.80;;;;;;4109180;28;20778;-70
2022/01/22 11:13:04;;;;;;;2.30;1.00;;;6.20;85.70;;;;;;4094610;28;20057;-70
2022/01/22 11:15:05;;;;;;;7.32;1.48;;;6.30;85.90;;;;;;4113755;28;20040;-70
2022/01/22 11:17:07;;;;;;;5.63;2.65;;;6.20;85.70;;;;;;4099232;28;20088;-69
2022/01/22 11:19:11;;;;;;;4.18;1.92;;;6.30;85.80;;;;;;4109547;28;20053;-70
2022/01/22 11:21:12;;;;;;;5.50;1.30;;;6.30;85.80;;;;;;4081487;28;20122;-70
2022/01/22 11:23:16;;;;;;;2.40;1.00;;;6.30;85.60;;;;;;4110612;28;20145;-70
2022/01/22 11:25:17;;;;;;;6.35;2.28;;;6.30;85.50;;;;;;4102459;28;20097;-70
2022/01/22 11:27:21;;;;;;;5.20;1.17;;;6.40;85.50;;;;;;4103712;28;20085;-70
2022/01/22 11:29:23;;;;;;;7.60;2.30;;;6.40;85.30;;;;;;4111079;28;20031;-70
2022/01/22 11:31:24;;;;;;;7.85;2.35;;;6.40;85.00;;;;;;4081180;28;20143;-70
2022/01/22 11:33:25;;;;;;;4.78;1.73;;;6.40;84.60;;;;;;4104592;28;20033;-70
2022/01/22 11:35:48;;;;;;;6.85;2.92;;;6.50;84.60;;;;;;4101800;28;20039;-70
2022/01/22 11:38:09;;;;;;;4.63;1.42;;;6.50;84.30;;;;;;4094977;28;20053;-70
2022/01/22 11:40:13;;;;;;;5.68;3.00;;;6.40;83.80;;;;;;4106080;28;20835;-70
2022/01/22 11:42:15;;;;;;;5.10;1.38;;;6.40;83.80;;;;;;4110720;28;20038;-70
2022/01/22 11:44:17;;;;;;;4.47;1.80;;;6.40;83.90;;;;;;4118018;28;20030;-68
2022/01/22 11:46:25;;;;;;;4.80;2.10;;;6.40;83.80;;;;;;4082907;28;20058;-68
2022/01/22 11:48:27;;;;;;;7.43;2.35;;;6.40;83.70;;;;;;4114714;28;20552;-68
2022/01/22 11:50:28;;;;;;;5.90;2.28;;;6.40;83.90;;;;;;4122189;28;20145;-68
2022/01/22 11:52:32;;;;;;;5.60;3.00;;;6.40;83.80;;;;;;4132038;28;20034;-68
2022/01/22 11:54:47;;;;;;;4.95;2.78;;;6.40;83.70;;;;;;4109548;28;20047;-68
2022/01/22 11:56:50;;;;;;;3.42;1.35;;;6.30;83.80;;;;;;4125073;28;20447;-68
2022/01/22 11:58:57;;;;;;;7.78;3.00;;;6.40;83.90;;;;;;4111392;28;20974;-70
2022/01/22 12:00:57;;;;;;;2.88;1.05;;;6.40;83.90;;;;;;4129992;28;20244;-70
2022/01/22 12:03:06;;;;;;;9.45;4.40;;;6.40;83.80;;;;;;4130253;28;20469;-70
2022/01/22 12:05:07;;;;;;;5.75;2.05;;;6.40;83.70;;;;;;4121946;28;20026;-70
2022/01/22 12:07:08;;;;;;;4.07;1.60;;;6.40;83.70;;;;;;4128175;28;20488;-72
2022/01/22 12:09:12;;;;;;;6.00;2.10;;;6.40;83.60;;;;;;4120937;28;20029;-70
2022/01/22 12:16:16;;;;;;;10.23;1.27;;;6.60;83.60;;;;;;4125470;28;20038;-70
2022/01/22 12:18:19;;;;;;;4.97;1.23;;;6.60;83.10;;;;;;4111474;28;20030;-69
2022/01/22 12:22:38;;;;;;;5.22;1.15;;;6.60;81.90;;;;;;4131660;28;20548;-69
2022/01/22 12:24:42;;;;;;;3.42;0.63;;;6.60;81.50;;;;;;4124564;28;20026;-69
2022/01/22 12:26:44;;;;;;;;;;;6.60;81.40;;;;;;4115463;28;20035;-69
2022/01/22 12:28:45;;;;;;;1.70;0.60;;;6.60;81.20;;;;;;4104403;28;19914;-70